sensor_id;sensor_type;location;lat;lon;timestamp;pressure;altitude;pressure_sealevel;temperature;humidity
55311;BME280;41173;52.634;-8.666;2023-10-09T00:00:52;101795.91;;;15.54;100.00
55311;BME280;41173;52.634;-8.666;2023-10-09T00:03:21;101778.22;;;15.56;100.00
55311;BME280;41173;52.634;-8.666;2023-10-09T00:05:50;101780.00;;;15.57;100.00
55311;BME280;41173;52.634;-8.666;2023-10-09T00:08:18;101791.53;;;15.61;100.00
55311;BME280;41173;52.634;-8.666;2023-10-09T00:10:48;101793.31;;;15.65;100.00
55311;BME280;41173;52.634;-8.666;2023-10-09T00:13:24;101801.22;;;15.60;100.00
55311;BME280;41173;52.634;-8.666;2023-10-09T00:15:57;101817.19;;;15.65;100.00
55311;BME280;41173;52.634;-8.666;2023-10-09T00:18:27;101823.34;;;15.59;100.00
55311;BME280;41173;52.634;-8.666;2023-10-09T00:20:56;101831.34;;;15.66;100.00
55311;BME280;41173;52.634;-8.666;2023-10-09T00:23:41;101813.69;;;15.68;100.00
55311;BME280;41173;52.634;-8.666;2023-10-09T00:26:09;101809.22;;;15.59;100.00
55311;BME280;41173;52.634;-8.666;2023-10-09T00:28:41;101790.69;;;15.68;100.00
55311;BME280;41173;52.634;-8.666;2023-10-09T00:31:12;101781.78;;;15.61;100.00
55311;BME280;41173;52.634;-8.666;2023-10-09T00:33:42;101792.44;;;15.65;100.00
55311;BME280;41173;52.634;-8.666;2023-10-09T00:36:08;101803.03;;;15.61;100.00
55311;BME280;41173;52.634;-8.666;2023-10-09T00:38:39;101798.59;;;15.64;100.00
55311;BME280;41173;52.634;-8.666;2023-10-09T00:41:09;101792.34;;;15.55;100.00
55311;BME280;41173;52.634;-8.666;2023-10-09T00:43:37;101792.38;;;15.58;100.00
55311;BME280;41173;52.634;-8.666;2023-10-09T00:46:04;101796.81;;;15.59;100.00
55311;BME280;41173;52.634;-8.666;2023-10-09T00:48:47;101792.38;;;15.58;100.00
55311;BME280;41173;52.634;-8.666;2023-10-09T00:51:13;101779.09;;;15.55;100.00
55311;BME280;41173;52.634;-8.666;2023-10-09T00:53:56;101782.69;;;15.59;100.00
55311;BME280;41173;52.634;-8.666;2023-10-09T00:56:32;101761.44;;;15.59;100.00
55311;BME280;41173;52.634;-8.666;2023-10-09T00:59:05;101760.59;;;15.65;100.00
55311;BME280;41173;52.634;-8.666;2023-10-09T01:01:35;101746.34;;;15.47;100.00
55311;BME280;41173;52.634;-8.666;2023-10-09T01:04:02;101744.63;;;15.58;100.00
55311;BME280;41173;52.634;-8.666;2023-10-09T01:06:41;101738.34;;;15.44;100.00
55311;BME280;41173;52.634;-8.666;2023-10-09T01:09:11;101741.03;;;15.47;100.00
55311;BME280;41173;52.634;-8.666;2023-10-09T01:11:38;101734.84;;;15.45;100.00
55311;BME280;41173;52.634;-8.666;2023-10-09T01:14:15;101718.00;;;15.40;100.00
55311;BME280;41173;52.634;-8.666;2023-10-09T01:16:40;101718.91;;;15.42;100.00
55311;BME280;41173;52.634;-8.666;2023-10-09T01:19:09;101719.78;;;15.44;100.00
55311;BME280;41173;52.634;-8.666;2023-10-09T01:21:54;101720.63;;;15.38;100.00
55311;BME280;41173;52.634;-8.666;2023-10-09T01:24:20;101719.81;;;15.46;100.00
55311;BME280;41173;52.634;-8.666;2023-10-09T01:26:46;101741.88;;;15.40;100.00
55311;BME280;41173;52.634;-8.666;2023-10-09T01:31:50;101754.16;;;15.29;100.00
55311;BME280;41173;52.634;-8.666;2023-10-09T01:34:29;101761.22;;;15.31;100.00
55311;BME280;41173;52.634;-8.666;2023-10-09T01:37:17;101757.66;;;15.28;100.00
55311;BME280;41173;52.634;-8.666;2023-10-09T01:39:46;101753.25;;;15.25;100.00
55311;BME280;41173;52.634;-8.666;2023-10-09T01:42:14;101750.63;;;15.33;100.00
55311;BME280;41173;52.634;-8.666;2023-10-09T01:44:49;101746.19;;;15.29;100.00
55311;BME280;41173;52.634;-8.666;2023-10-09T01:47:14;101739.09;;;15.25;100.00
55311;BME280;41173;52.634;-8.666;2023-10-09T01:49:43;101738.25;;;15.29;100.00
55311;BME280;41173;52.634;-8.666;2023-10-09T01:52:12;101734.66;;;15.23;100.00
55311;BME280;41173;52.634;-8.666;2023-10-09T01:54:42;101721.47;;;15.30;100.00
55311;BME280;41173;52.634;-8.666;2023-10-09T01:57:12;101718.78;;;15.27;100.00
55311;BME280;41173;52.634;-8.666;2023-10-09T01:59:42;101696.59;;;15.12;100.00
55311;BME280;41173;52.634;-8.666;2023-10-09T02:02:28;101701.81;;;15.04;100.00
55311;BME280;41173;52.634;-8.666;2023-10-09T02:05:00;101716.94;;;15.15;100.00
55311;BME280;41173;52.634;-8.666;2023-10-09T02:07:35;101723.09;;;15.15;100.00
55311;BME280;41173;52.634;-8.666;2023-10-09T02:10:11;101717.78;;;15.14;100.00
55311;BME280;41173;52.634;-8.666;2023-10-09T02:12:47;101711.66;;;15.19;100.00
55311;BME280;41173;52.634;-8.666;2023-10-09T02:15:31;101713.44;;;15.20;100.00
55311;BME280;41173;52.634;-8.666;2023-10-09T02:18:17;101707.22;;;15.17;100.00
55311;BME280;41173;52.634;-8.666;2023-10-09T02:20:50;101710.75;;;15.16;100.00
55311;BME280;41173;52.634;-8.666;2023-10-09T02:23:25;101712.53;;;15.18;100.00
55311;BME280;41173;52.634;-8.666;2023-10-09T02:25:58;101712.56;;;15.23;100.00
55311;BME280;41173;52.634;-8.666;2023-10-09T02:28:30;101710.78;;;15.20;100.00
55311;BME280;41173;52.634;-8.666;2023-10-09T02:30:58;101704.56;;;15.17;100.00
55311;BME280;41173;52.634;-8.666;2023-10-09T02:33:26;101698.31;;;15.10;100.00
55311;BME280;41173;52.634;-8.666;2023-10-09T02:35:54;101688.59;;;15.08;100.00
55311;BME280;41173;52.634;-8.666;2023-10-09T02:38:20;101690.38;;;15.12;100.00
55311;BME280;41173;52.634;-8.666;2023-10-09T02:40:52;101683.34;;;15.11;100.00
55311;BME280;41173;52.634;-8.666;2023-10-09T02:43:31;101690.38;;;15.07;100.00
55311;BME280;41173;52.634;-8.666;2023-10-09T02:46:06;101687.72;;;15.09;100.00
55311;BME280;41173;52.634;-8.666;2023-10-09T02:48:52;101696.56;;;15.09;100.00
55311;BME280;41173;52.634;-8.666;2023-10-09T02:51:19;101711.56;;;15.04;100.00
55311;BME280;41173;52.634;-8.666;2023-10-09T02:54:01;101715.16;;;15.12;100.00
55311;BME280;41173;52.634;-8.666;2023-10-09T02:56:52;101712.47;;;15.09;100.00
55311;BME280;41173;52.634;-8.666;2023-10-09T02:59:43;101708.09;;;15.13;100.00
55311;BME280;41173;52.634;-8.666;2023-10-09T03:02:10;101705.38;;;15.08;100.00
55311;BME280;41173;52.634;-8.666;2023-10-09T03:04:36;101713.31;;;15.05;100.00
55311;BME280;41173;52.634;-8.666;2023-10-09T03:07:04;101730.13;;;15.10;100.00
55311;BME280;41173;52.634;-8.666;2023-10-09T03:09:31;101714.22;;;15.09;100.00
55311;BME280;41173;52.634;-8.666;2023-10-09T03:12:03;101705.41;;;15.11;100.00
55311;BME280;41173;52.634;-8.666;2023-10-09T03:14:33;101702.81;;;15.16;100.00
55311;BME280;41173;52.634;-8.666;2023-10-09T03:17:01;101704.56;;;15.12;100.00
55311;BME280;41173;52.634;-8.666;2023-10-09T03:19:33;101707.19;;;15.14;100.00
55311;BME280;41173;52.634;-8.666;2023-10-09T03:22:03;101704.53;;;15.14;100.00
55311;BME280;41173;52.634;-8.666;2023-10-09T03:24:28;101699.25;;;15.15;100.00
55311;BME280;41173;52.634;-8.666;2023-10-09T03:26:56;101702.78;;;15.17;100.00
55311;BME280;41173;52.634;-8.666;2023-10-09T03:29:23;101696.59;;;15.12;100.00
55311;BME280;41173;52.634;-8.666;2023-10-09T03:31:48;101705.44;;;15.13;100.00
55311;BME280;41173;52.634;-8.666;2023-10-09T03:34:16;101702.81;;;15.16;100.00
55311;BME280;41173;52.634;-8.666;2023-10-09T03:36:42;101712.50;;;15.15;100.00
55311;BME280;41173;52.634;-8.666;2023-10-09T03:39:09;101699.25;;;15.15;100.00
55311;BME280;41173;52.634;-8.666;2023-10-09T03:41:53;101679.75;;;15.06;100.00
55311;BME280;41173;52.634;-8.666;2023-10-09T03:44:20;101676.25;;;15.10;100.00
55311;BME280;41173;52.634;-8.666;2023-10-09T03:46:46;101662.13;;;15.12;100.00
55311;BME280;41173;52.634;-8.666;2023-10-09T03:49:12;101666.50;;;15.09;100.00
55311;BME280;41173;52.634;-8.666;2023-10-09T03:51:39;101683.31;;;15.08;100.00
55311;BME280;41173;52.634;-8.666;2023-10-09T03:54:05;101678.84;;;15.00;100.00
55311;BME280;41173;52.634;-8.666;2023-10-09T03:56:35;101686.75;;;14.97;100.00
55311;BME280;41173;52.634;-8.666;2023-10-09T03:59:01;101676.09;;;14.93;100.00
55311;BME280;41173;52.634;-8.666;2023-10-09T04:01:29;101686.72;;;14.94;100.00
55311;BME280;41173;52.634;-8.666;2023-10-09T04:04:04;101683.22;;;14.97;100.00
55311;BME280;41173;52.634;-8.666;2023-10-09T04:06:32;101691.19;;;15.01;100.00
55311;BME280;41173;52.634;-8.666;2023-10-09T04:09:05;101698.31;;;15.04;100.00
55311;BME280;41173;52.634;-8.666;2023-10-09T04:11:43;101696.50;;;15.03;100.00
55311;BME280;41173;52.634;-8.666;2023-10-09T04:14:14;101685.88;;;15.00;100.00
55311;BME280;41173;52.634;-8.666;2023-10-09T04:16:59;101674.34;;;14.95;100.00
55311;BME280;41173;52.634;-8.666;2023-10-09T04:19:50;101686.81;;;15.02;100.00
55311;BME280;41173;52.634;-8.666;2023-10-09T04:22:35;101685.88;;;15.01;100.00
55311;BME280;41173;52.634;-8.666;2023-10-09T04:25:05;101674.44;;;15.04;100.00
55311;BME280;41173;52.634;-8.666;2023-10-09T04:27:41;101670.88;;;15.03;100.00
55311;BME280;41173;52.634;-8.666;2023-10-09T04:30:07;101674.44;;;15.02;100.00
55311;BME280;41173;52.634;-8.666;2023-10-09T04:32:33;101676.16;;;14.97;100.00
55311;BME280;41173;52.634;-8.666;2023-10-09T04:35:00;101684.97;;;14.92;100.00
55311;BME280;41173;52.634;-8.666;2023-10-09T04:37:45;101695.56;;;14.95;100.00
55311;BME280;41173;52.634;-8.666;2023-10-09T04:40:18;101695.56;;;14.93;100.00
55311;BME280;41173;52.634;-8.666;2023-10-09T04:43:02;101705.31;;;14.99;100.00
55311;BME280;41173;52.634;-8.666;2023-10-09T04:45:35;101706.22;;;15.02;100.00
55311;BME280;41173;52.634;-8.666;2023-10-09T04:48:19;101714.97;;;14.91;100.00
55311;BME280;41173;52.634;-8.666;2023-10-09T04:51:01;101719.38;;;14.89;100.00
55311;BME280;41173;52.634;-8.666;2023-10-09T04:53:45;101706.94;;;14.84;100.00
55311;BME280;41173;52.634;-8.666;2023-10-09T04:56:13;101706.13;;;14.90;100.00
55311;BME280;41173;52.634;-8.666;2023-10-09T04:58:41;101701.72;;;14.92;100.00
55311;BME280;41173;52.634;-8.666;2023-10-09T05:01:07;101699.94;;;14.87;100.00
55311;BME280;41173;52.634;-8.666;2023-10-09T05:03:38;101693.69;;;14.81;100.00
55311;BME280;41173;52.634;-8.666;2023-10-09T05:06:06;101699.91;;;14.85;100.00
55311;BME280;41173;52.634;-8.666;2023-10-09T05:09:07;101700.81;;;14.87;100.00
55311;BME280;41173;52.634;-8.666;2023-10-09T05:11:38;101700.78;;;14.84;100.00
55311;BME280;41173;52.634;-8.666;2023-10-09T05:14:19;101705.13;;;14.77;100.00
55311;BME280;41173;52.634;-8.666;2023-10-09T05:16:53;101705.03;;;14.66;100.00
55311;BME280;41173;52.634;-8.666;2023-10-09T05:19:26;101701.53;;;14.69;100.00
55311;BME280;41173;52.634;-8.666;2023-10-09T05:22:10;101702.34;;;14.62;100.00
55311;BME280;41173;52.634;-8.666;2023-10-09T05:24:57;101711.22;;;14.64;100.00
55311;BME280;41173;52.634;-8.666;2023-10-09T05:27:23;101717.38;;;14.63;100.00
55311;BME280;41173;52.634;-8.666;2023-10-09T05:30:08;101715.56;;;14.62;100.00
55311;BME280;41173;52.634;-8.666;2023-10-09T05:32:53;101711.16;;;14.59;100.00
55311;BME280;41173;52.634;-8.666;2023-10-09T05:35:23;101704.94;;;14.57;100.00
55311;BME280;41173;52.634;-8.666;2023-10-09T05:38:07;101702.25;;;14.56;100.00
55311;BME280;41173;52.634;-8.666;2023-10-09T05:40:41;101689.88;;;14.55;100.00
55311;BME280;41173;52.634;-8.666;2023-10-09T05:43:09;101686.31;;;14.51;100.00
55311;BME280;41173;52.634;-8.666;2023-10-09T05:45:54;101688.97;;;14.53;100.00
55311;BME280;41173;52.634;-8.666;2023-10-09T05:48:40;101690.72;;;14.49;100.00
55311;BME280;41173;52.634;-8.666;2023-10-09T05:51:05;101694.25;;;14.49;100.00
55311;BME280;41173;52.634;-8.666;2023-10-09T05:54:00;101707.41;;;14.42;100.00
55311;BME280;41173;52.634;-8.666;2023-10-09T05:56:57;101710.97;;;14.44;100.00
55311;BME280;41173;52.634;-8.666;2023-10-09T05:59:45;101711.00;;;14.47;100.00
55311;BME280;41173;52.634;-8.666;2023-10-09T06:02:29;101693.31;;;14.44;100.00
55311;BME280;41173;52.634;-8.666;2023-10-09T06:05:30;101688.00;;;14.44;100.00
55311;BME280;41173;52.634;-8.666;2023-10-09T06:08:06;101690.69;;;14.47;100.00
55311;BME280;41173;52.634;-8.666;2023-10-09T06:10:32;101680.06;;;14.41;100.00
55311;BME280;41173;52.634;-8.666;2023-10-09T06:13:05;101679.16;;;14.41;100.00
55311;BME280;41173;52.634;-8.666;2023-10-09T06:15:36;101671.19;;;14.39;100.00
55311;BME280;41173;52.634;-8.666;2023-10-09T06:18:11;101677.34;;;14.35;100.00
55311;BME280;41173;52.634;-8.666;2023-10-09T06:20:57;101682.66;;;14.37;100.00
55311;BME280;41173;52.634;-8.666;2023-10-09T06:23:35;101679.97;;;14.34;100.00
55311;BME280;41173;52.634;-8.666;2023-10-09T06:26:29;101679.13;;;14.36;100.00
55311;BME280;41173;52.634;-8.666;2023-10-09T06:28:58;101672.09;;;14.40;100.00
55311;BME280;41173;52.634;-8.666;2023-10-09T06:31:55;101677.41;;;14.41;100.00
55311;BME280;41173;52.634;-8.666;2023-10-09T06:34:27;101688.00;;;14.43;100.00
55311;BME280;41173;52.634;-8.666;2023-10-09T06:37:00;101689.69;;;14.38;100.00
55311;BME280;41173;52.634;-8.666;2023-10-09T06:39:34;101686.19;;;14.37;100.00
55311;BME280;41173;52.634;-8.666;2023-10-09T06:42:27;101694.97;;;14.33;100.00
55311;BME280;41173;52.634;-8.666;2023-10-09T06:45:11;101692.25;;;14.27;100.00
55311;BME280;41173;52.634;-8.666;2023-10-09T06:47:40;101694.97;;;14.33;100.00
55311;BME280;41173;52.634;-8.666;2023-10-09T06:50:19;101699.38;;;14.31;100.00
55311;BME280;41173;52.634;-8.666;2023-10-09T06:52:48;101694.97;;;14.33;100.00
55311;BME280;41173;52.634;-8.666;2023-10-09T06:55:27;101702.88;;;14.30;100.00
55311;BME280;41173;52.634;-8.666;2023-10-09T06:58:01;101707.28;;;14.33;100.00
55311;BME280;41173;52.634;-8.666;2023-10-09T07:00:40;101699.25;;;14.23;100.00
55311;BME280;41173;52.634;-8.666;2023-10-09T07:03:25;101695.78;;;14.26;100.00
55311;BME280;41173;52.634;-8.666;2023-10-09T07:06:05;101678.09;;;14.25;100.00
55311;BME280;41173;52.634;-8.666;2023-10-09T07:08:35;101690.44;;;14.23;100.00
55311;BME280;41173;52.634;-8.666;2023-10-09T07:11:06;101680.69;;;14.17;100.00
55311;BME280;41173;52.634;-8.666;2023-10-09T07:13:52;101689.56;;;14.22;100.00
55311;BME280;41173;52.634;-8.666;2023-10-09T07:16:22;101692.19;;;14.24;100.00
55311;BME280;41173;52.634;-8.666;2023-10-09T07:18:56;101693.88;;;14.14;100.00
55311;BME280;41173;52.634;-8.666;2023-10-09T07:21:35;101698.28;;;14.12;100.00
55311;BME280;41173;52.634;-8.666;2023-10-09T07:24:01;101693.91;;;14.16;100.00
55311;BME280;41173;52.634;-8.666;2023-10-09T07:26:42;101702.03;;;14.36;100.00
55311;BME280;41173;52.634;-8.666;2023-10-09T07:29:20;101699.53;;;14.49;100.00
55311;BME280;41173;52.634;-8.666;2023-10-09T07:31:52;101687.34;;;14.61;100.00
55311;BME280;41173;52.634;-8.666;2023-10-09T07:34:24;101697.97;;;14.69;100.00
55311;BME280;41173;52.634;-8.666;2023-10-09T07:36:56;101703.13;;;14.56;100.00
55311;BME280;41173;52.634;-8.666;2023-10-09T07:39:22;101707.50;;;14.51;100.00
55311;BME280;41173;52.634;-8.666;2023-10-09T07:41:48;101701.28;;;14.46;100.00
55311;BME280;41173;52.634;-8.666;2023-10-09T07:44:43;101701.22;;;14.40;100.00
55311;BME280;41173;52.634;-8.666;2023-10-09T07:47:18;101701.25;;;14.41;100.00
55311;BME280;41173;52.634;-8.666;2023-10-09T07:50:10;101695.03;;;14.39;100.00
55311;BME280;41173;52.634;-8.666;2023-10-09T07:52:36;101697.66;;;14.38;100.00
55311;BME280;41173;52.634;-8.666;2023-10-09T07:55:09;101698.56;;;14.38;100.00
55311;BME280;41173;52.634;-8.666;2023-10-09T07:57:53;101695.81;;;14.32;100.00
55311;BME280;41173;52.634;-8.666;2023-10-09T08:00:20;101687.00;;;14.30;100.00
55311;BME280;41173;52.634;-8.666;2023-10-09T08:03:04;101681.75;;;14.35;100.00
55311;BME280;41173;52.634;-8.666;2023-10-09T08:05:35;101680.81;;;14.29;100.00
55311;BME280;41173;52.634;-8.666;2023-10-09T08:08:09;101694.84;;;14.21;100.00
55311;BME280;41173;52.634;-8.666;2023-10-09T08:11:07;101700.34;;;14.41;100.00
55311;BME280;41173;52.634;-8.666;2023-10-09T08:14:04;101703.88;;;14.40;100.00
55311;BME280;41173;52.634;-8.666;2023-10-09T08:16:45;101699.44;;;14.39;100.00
55311;BME280;41173;52.634;-8.666;2023-10-09T08:19:11;101707.44;;;14.43;100.00
55311;BME280;41173;52.634;-8.666;2023-10-09T08:21:58;101711.00;;;14.47;100.00
55311;BME280;41173;52.634;-8.666;2023-10-09T08:25:02;101725.06;;;14.40;100.00
55311;BME280;41173;52.634;-8.666;2023-10-09T08:27:29;101713.59;;;14.42;100.00
55311;BME280;41173;52.634;-8.666;2023-10-09T08:30:06;101718.06;;;14.46;100.00
55311;BME280;41173;52.634;-8.666;2023-10-09T08:32:44;101705.69;;;14.45;100.00
55311;BME280;41173;52.634;-8.666;2023-10-09T08:35:33;101710.09;;;14.43;100.00
55311;BME280;41173;52.634;-8.666;2023-10-09T08:38:00;101706.53;;;14.44;100.00
55311;BME280;41173;52.634;-8.666;2023-10-09T08:40:33;101710.13;;;14.46;100.00
55311;BME280;41173;52.634;-8.666;2023-10-09T08:43:10;101706.59;;;14.47;100.00
55311;BME280;41173;52.634;-8.666;2023-10-09T08:45:41;101712.81;;;14.53;100.00
55311;BME280;41173;52.634;-8.666;2023-10-09T08:48:10;101707.56;;;14.57;100.00
55311;BME280;41173;52.634;-8.666;2023-10-09T08:50:44;101710.19;;;14.56;100.00
55311;BME280;41173;52.634;-8.666;2023-10-09T08:53:13;101717.34;;;14.60;100.00
55311;BME280;41173;52.634;-8.666;2023-10-09T08:55:40;101714.66;;;14.58;100.00
55311;BME280;41173;52.634;-8.666;2023-10-09T08:58:06;101720.91;;;14.63;100.00
55311;BME280;41173;52.634;-8.666;2023-10-09T09:00:39;101719.97;;;14.60;100.00
55311;BME280;41173;52.634;-8.666;2023-10-09T09:03:08;101733.25;;;14.63;100.00
55311;BME280;41173;52.634;-8.666;2023-10-09T09:05:34;101737.69;;;14.65;100.00
55311;BME280;41173;52.634;-8.666;2023-10-09T09:08:01;101734.13;;;14.62;100.00
55311;BME280;41173;52.634;-8.666;2023-10-09T09:10:31;101732.53;;;14.76;100.00
55311;BME280;41173;52.634;-8.666;2023-10-09T09:13:14;101724.59;;;14.79;100.00
55311;BME280;41173;52.634;-8.666;2023-10-09T09:15:46;101729.00;;;14.80;100.00
55311;BME280;41173;52.634;-8.666;2023-10-09T09:18:12;101737.84;;;14.79;100.00
55311;BME280;41173;52.634;-8.666;2023-10-09T09:20:43;101739.63;;;14.82;100.00
55311;BME280;41173;52.634;-8.666;2023-10-09T09:23:12;101738.78;;;14.88;100.00
55311;BME280;41173;52.634;-8.666;2023-10-09T09:25:46;101734.38;;;14.87;100.00
55311;BME280;41173;52.634;-8.666;2023-10-09T09:28:14;101737.88;;;14.85;100.00
55311;BME280;41173;52.634;-8.666;2023-10-09T09:30:45;101740.56;;;14.87;100.00
55311;BME280;41173;52.634;-8.666;2023-10-09T09:33:33;101740.69;;;15.02;100.00
55311;BME280;41173;52.634;-8.666;2023-10-09T09:36:06;101738.88;;;14.98;100.00
55311;BME280;41173;52.634;-8.666;2023-10-09T09:38:33;101742.47;;;15.02;100.00
55311;BME280;41173;52.634;-8.666;2023-10-09T09:41:15;101746.03;;;15.06;100.00
55311;BME280;41173;52.634;-8.666;2023-10-09T09:43:57;101739.91;;;15.13;100.00
55311;BME280;41173;52.634;-8.666;2023-10-09T09:46:33;101733.81;;;15.25;100.00
55311;BME280;41173;52.634;-8.666;2023-10-09T09:49:05;101740.94;;;15.32;100.00
55311;BME280;41173;52.634;-8.666;2023-10-09T09:51:44;101729.44;;;15.34;100.00
55311;BME280;41173;52.634;-8.666;2023-10-09T09:54:15;101729.56;;;15.51;100.00
55311;BME280;41173;52.634;-8.666;2023-10-09T09:56:44;101733.19;;;15.69;100.00
55311;BME280;41173;52.634;-8.666;2023-10-09T09:59:18;101735.03;;;15.79;100.00
55311;BME280;41173;52.634;-8.666;2023-10-09T10:01:55;101732.44;;;15.88;100.00
55311;BME280;41173;52.634;-8.666;2023-10-09T10:04:32;101733.34;;;15.96;100.00
55311;BME280;41173;52.634;-8.666;2023-10-09T10:07:04;101732.59;;;16.24;100.00
55311;BME280;41173;52.634;-8.666;2023-10-09T10:09:42;101734.41;;;16.39;100.00
55311;BME280;41173;52.634;-8.666;2023-10-09T10:12:11;101738.88;;;16.66;100.00
55311;BME280;41173;52.634;-8.666;2023-10-09T10:14:57;101725.63;;;16.77;100.00
55311;BME280;41173;52.634;-8.666;2023-10-09T10:20:26;101723.88;;;17.06;100.00
55311;BME280;41173;52.634;-8.666;2023-10-09T10:23:17;101727.41;;;17.24;100.00
55311;BME280;41173;52.634;-8.666;2023-10-09T10:25:44;101719.41;;;17.36;100.00
55311;BME280;41173;52.634;-8.666;2023-10-09T10:28:25;101704.31;;;17.44;100.00
55311;BME280;41173;52.634;-8.666;2023-10-09T10:31:11;101706.94;;;17.49;100.00
55311;BME280;41173;52.634;-8.666;2023-10-09T10:36:24;101704.25;;;17.74;100.00
55311;BME280;41173;52.634;-8.666;2023-10-09T10:39:03;101718.41;;;17.90;100.00
55311;BME280;41173;52.634;-8.666;2023-10-09T10:41:36;101709.50;;;17.98;100.00
55311;BME280;41173;52.634;-8.666;2023-10-09T10:44:32;101703.25;;;18.02;100.00
55311;BME280;41173;52.634;-8.666;2023-10-09T10:47:11;101717.38;;;18.18;100.00
55311;BME280;41173;52.634;-8.666;2023-10-09T10:50:02;101708.44;;;18.30;100.00
55311;BME280;41173;52.634;-8.666;2023-10-09T10:53:16;101715.47;;;18.45;100.00
55311;BME280;41173;52.634;-8.666;2023-10-09T10:56:01;101719.88;;;18.49;100.00
55311;BME280;41173;52.634;-8.666;2023-10-09T10:58:41;101713.56;;;18.61;100.00
55311;BME280;41173;52.634;-8.666;2023-10-09T11:01:19;101719.72;;;18.71;100.00
55311;BME280;41173;52.634;-8.666;2023-10-09T11:03:49;101719.59;;;18.89;100.00
55311;BME280;41173;52.634;-8.666;2023-10-09T11:06:31;101723.09;;;18.97;100.00
55311;BME280;41173;52.634;-8.666;2023-10-09T11:09:04;101715.97;;;19.00;100.00
55311;BME280;41173;52.634;-8.666;2023-10-09T11:11:50;101711.59;;;18.92;100.00
55311;BME280;41173;52.634;-8.666;2023-10-09T11:14:45;101709.84;;;18.88;100.00
55311;BME280;41173;52.634;-8.666;2023-10-09T11:17:16;101712.50;;;18.91;100.00
55311;BME280;41173;52.634;-8.666;2023-10-09T11:19:51;101711.53;;;19.02;100.00
55311;BME280;41173;52.634;-8.666;2023-10-09T11:22:18;101715.97;;;19.00;100.00
55311;BME280;41173;52.634;-8.666;2023-10-09T11:24:53;101714.09;;;19.11;100.00
55311;BME280;41173;52.634;-8.666;2023-10-09T11:27:36;101712.28;;;19.16;100.00
55311;BME280;41173;52.634;-8.666;2023-10-09T11:30:05;101714.84;;;19.24;100.00
55311;BME280;41173;52.634;-8.666;2023-10-09T11:32:37;101713.97;;;19.25;100.00
55311;BME280;41173;52.634;-8.666;2023-10-09T11:35:10;101715.56;;;19.43;100.00
55311;BME280;41173;52.634;-8.666;2023-10-09T11:37:36;101719.00;;;19.54;100.00
55311;BME280;41173;52.634;-8.666;2023-10-09T11:40:30;101704.66;;;19.64;100.00
55311;BME280;41173;52.634;-8.666;2023-10-09T11:43:10;101703.53;;;19.85;100.00
55311;BME280;41173;52.634;-8.666;2023-10-09T11:45:39;101697.31;;;19.85;100.00
55311;BME280;41173;52.634;-8.666;2023-10-09T11:48:18;101696.34;;;19.92;100.00
55311;BME280;41173;52.634;-8.666;2023-10-09T11:51:12;101694.53;;;19.92;100.00
55311;BME280;41173;52.634;-8.666;2023-10-09T11:53:45;101700.75;;;19.95;100.00
55311;BME280;41173;52.634;-8.666;2023-10-09T11:56:23;101699.09;;;19.84;100.00
55311;BME280;41173;52.634;-8.666;2023-10-09T11:58:52;101698.25;;;19.79;100.00
55311;BME280;41173;52.634;-8.666;2023-10-09T12:01:18;101691.03;;;19.87;100.00
55311;BME280;41173;52.634;-8.666;2023-10-09T12:03:47;101690.91;;;19.98;100.00
55311;BME280;41173;52.634;-8.666;2023-10-09T12:06:16;101698.88;;;20.01;100.00
55311;BME280;41173;52.634;-8.666;2023-10-09T12:08:45;101696.16;;;20.06;100.00
55311;BME280;41173;52.634;-8.666;2023-10-09T12:11:15;101701.47;;;20.09;100.00
55311;BME280;41173;52.634;-8.666;2023-10-09T12:13:48;101697.97;;;20.05;100.00
55311;BME280;41173;52.634;-8.666;2023-10-09T12:16:13;101694.19;;;20.19;100.00
55311;BME280;41173;52.634;-8.666;2023-10-09T12:18:41;101700.50;;;20.15;100.00
55311;BME280;41173;52.634;-8.666;2023-10-09T12:21:08;101693.34;;;20.17;100.00
55311;BME280;41173;52.634;-8.666;2023-10-09T12:23:41;101688.78;;;20.23;100.00
55311;BME280;41173;52.634;-8.666;2023-10-09T12:26:08;101695.16;;;20.15;100.00
55311;BME280;41173;52.634;-8.666;2023-10-09T12:28:40;101684.34;;;20.22;100.00
55311;BME280;41173;52.634;-8.666;2023-10-09T12:31:05;101685.38;;;20.10;100.00
55311;BME280;41173;52.634;-8.666;2023-10-09T12:33:31;101676.44;;;20.15;100.00
55311;BME280;41173;52.634;-8.666;2023-10-09T12:35:56;101676.47;;;20.13;100.00
55311;BME280;41173;52.634;-8.666;2023-10-09T12:38:29;101669.13;;;20.26;100.00
55311;BME280;41173;52.634;-8.666;2023-10-09T12:41:05;101650.50;;;20.23;100.00
55311;BME280;41173;52.634;-8.666;2023-10-09T12:43:40;101657.50;;;20.30;100.00
55311;BME280;41173;52.634;-8.666;2023-10-09T12:46:08;101653.97;;;20.28;100.00
55311;BME280;41173;52.634;-8.666;2023-10-09T12:48:34;101653.06;;;20.27;100.00
55311;BME280;41173;52.634;-8.666;2023-10-09T12:51:01;101656.28;;;20.51;100.00
55311;BME280;41173;52.634;-8.666;2023-10-09T12:53:34;101649.28;;;20.42;100.00
55311;BME280;41173;52.634;-8.666;2023-10-09T12:55:59;101649.28;;;20.44;100.00
55311;BME280;41173;52.634;-8.666;2023-10-09T12:58:25;101642.91;;;20.51;100.00
55311;BME280;41173;52.634;-8.666;2023-10-09T13:00:52;101642.84;;;20.56;100.00
55311;BME280;41173;52.634;-8.666;2023-10-09T13:03:18;101641.03;;;20.58;100.00
55311;BME280;41173;52.634;-8.666;2023-10-09T13:05:49;101644.59;;;20.57;100.00
55311;BME280;41173;52.634;-8.666;2023-10-09T13:08:24;101640.06;;;20.65;100.00
55311;BME280;41173;52.634;-8.666;2023-10-09T13:10:56;101651.72;;;20.58;100.00
55311;BME280;41173;52.634;-8.666;2023-10-09T13:13:29;101641.94;;;20.55;100.00
55311;BME280;41173;52.634;-8.666;2023-10-09T13:16:17;101650.78;;;20.60;100.00